Time;durP1;ratioP1;P1;durP2;ratioP2;P2;SDS_P1;SDS_P2;PMS_P1;PMS_P2;Temp;Humidity;BMP_temperature;BMP_pressure;BME280_temperature;BME280_humidity;BME280_pressure;Samples;Min_cycle;Max_cycle;Signal;HPM_P1;HPM_P2
2024/01/14 00:02:07;;;;;;;14.20;4.00;;;;;;;2.57;100.00;99662.91;5012047;28;20040;-77
2024/01/14 00:04:32;;;;;;;19.90;2.97;;;;;;;2.61;100.00;99670.41;5027994;28;20095;-76
2024/01/14 00:06:57;;;;;;;15.98;2.90;;;;;;;2.62;100.00;99674.72;5011564;28;20256;-76
2024/01/14 00:09:23;;;;;;;21.50;4.95;;;;;;;2.53;100.00;99659.72;5011630;28;20073;-76
2024/01/14 00:11:49;;;;;;;26.17;4.57;;;;;;;2.50;100.00;99671.34;5033457;28;20041;-77
2024/01/14 00:14:15;;;;;;;15.85;4.35;;;;;;;2.60;100.00;99687.19;5044110;28;20280;-76
2024/01/14 00:16:40;;;;;;;19.92;3.97;;;;;;;2.53;100.00;99668.47;5040966;28;20037;-76
2024/01/14 00:19:07;;;;;;;23.02;5.53;;;;;;;2.71;100.00;99686.22;5033577;28;20045;-77
2024/01/14 00:21:33;;;;;;;18.20;3.60;;;;;;;2.64;100.00;99658.75;5023650;28;20128;-77
2024/01/14 00:23:58;;;;;;;16.00;5.93;;;;;;;2.70;100.00;99679.28;5009525;28;20738;-77
2024/01/14 00:26:27;;;;;;;17.75;3.30;;;;;;;2.61;100.00;99651.13;5009316;28;20030;-76
2024/01/14 00:28:53;;;;;;;35.35;4.57;;;;;;;2.81;100.00;99665.13;5029592;28;20854;-75
2024/01/14 00:31:19;;;;;;;22.85;4.78;;;;;;;2.74;100.00;99670.13;5026123;28;20041;-77
2024/01/14 00:33:44;;;;;;;17.02;3.05;;;;;;;2.66;100.00;99659.44;5026057;28;20388;-77
2024/01/14 00:36:10;;;;;;;18.67;3.58;;;;;;;2.66;100.00;99676.06;5025840;28;20088;-76
2024/01/14 00:38:35;;;;;;;22.40;3.55;;;;;;;2.62;100.00;99673.84;5025932;28;20037;-77
2024/01/14 00:41:01;;;;;;;17.27;4.10;;;;;;;2.63;100.00;99678.19;5026097;28;20030;-76
2024/01/14 00:43:27;;;;;;;20.40;4.43;;;;;;;2.64;100.00;99664.00;5025988;28;20091;-77
2024/01/14 00:45:52;;;;;;;21.10;2.78;;;;;;;2.59;100.00;99660.97;5001048;28;20874;-77
2024/01/14 00:48:18;;;;;;;14.88;3.25;;;;;;;2.60;100.00;99657.34;5026853;28;20036;-77
2024/01/14 00:50:43;;;;;;;17.42;3.15;;;;;;;2.60;100.00;99649.44;5023771;28;20096;-77
2024/01/14 00:53:08;;;;;;;14.50;2.90;;;;;;;2.66;100.00;99641.81;5022713;28;20056;-77
2024/01/14 00:55:34;;;;;;;9.13;2.33;;;;;;;2.49;100.00;99588.00;5023473;28;20045;-77
2024/01/14 00:58:00;;;;;;;11.32;2.15;;;;;;;2.57;100.00;99584.69;5039270;28;20079;-77
2024/01/14 01:00:26;;;;;;;11.15;1.85;;;;;;;2.46;100.00;99555.88;5018621;28;20045;-77
2024/01/14 01:02:52;;;;;;;18.00;3.45;;;;;;;2.48;100.00;99578.47;5034547;28;20108;-77
2024/01/14 01:05:18;;;;;;;;;;;;;;;2.41;100.00;99579.13;5033254;28;20025;-76
2024/01/14 01:07:43;;;;;;;9.63;2.13;;;;;;;2.27;100.00;99583.00;5014209;28;20003;-76
2024/01/14 01:10:09;;;;;;;11.03;2.20;;;;;;;2.22;100.00;99590.50;5036724;28;20434;-76
2024/01/14 01:12:34;;;;;;;10.65;2.65;;;;;;;2.24;100.00;99597.28;5011894;28;20722;-77
2024/01/14 01:15:00;;;;;;;10.68;2.90;;;;;;;2.23;100.00;99597.44;5029224;28;20072;-77
2024/01/14 01:17:25;;;;;;;11.63;2.60;;;;;;;2.20;100.00;99598.56;5015407;28;20041;-77
2024/01/14 01:19:51;;;;;;;11.38;1.38;;;;;;;2.16;100.00;99591.06;5011267;28;20037;-78
2024/01/14 01:22:16;;;;;;;8.27;1.58;;;;;;;1.98;100.00;99549.59;5042778;28;20091;-77
2024/01/14 01:24:42;;;;;;;14.00;2.63;;;;;;;2.13;100.00;99580.78;5042083;28;20070;-78
2024/01/14 01:27:07;;;;;;;10.02;1.80;;;;;;;1.94;100.00;99537.66;5024732;28;20025;-77
2024/01/14 01:29:32;;;;;;;9.20;1.83;;;;;;;2.05;100.00;99581.47;5022554;28;20097;-78
2024/01/14 01:31:58;;;;;;;14.40;2.30;;;;;;;2.02;100.00;99568.59;5038942;28;20052;-77
2024/01/14 01:34:24;;;;;;;10.93;2.50;;;;;;;2.10;100.00;99585.34;5037711;28;20291;-77
2024/01/14 01:36:49;;;;;;;4.32;1.25;;;;;;;2.03;100.00;99576.31;5027621;28;20288;-77
2024/01/14 01:39:14;;;;;;;12.73;3.33;;;;;;;2.09;100.00;99588.97;5034419;28;20075;-78
2024/01/14 01:41:40;;;;;;;10.48;2.30;;;;;;;1.99;100.00;99571.47;5030994;28;20297;-77
2024/01/14 01:44:05;;;;;;;28.85;3.58;;;;;;;2.02;100.00;99595.75;5030886;28;20045;-77
2024/01/14 01:46:32;;;;;;;6.28;1.33;;;;;;;2.03;100.00;99607.09;5038170;28;20033;-78
2024/01/14 01:48:58;;;;;;;6.82;1.50;;;;;;;1.94;100.00;99602.63;5040316;28;20083;-77
2024/01/14 01:51:24;;;;;;;12.90;1.52;;;;;;;1.93;100.00;99646.56;5036024;28;20033;-78
2024/01/14 01:53:50;;;;;;;18.17;2.95;;;;;;;1.95;100.00;99642.00;5044273;28;20036;-77
2024/01/14 01:56:16;;;;;;;11.20;1.33;;;;;;;1.92;100.00;99655.44;5027940;28;20045;-77
2024/01/14 01:58:42;;;;;;;9.98;2.10;;;;;;;1.82;100.00;99652.75;5045245;28;20047;-78
2024/01/14 02:01:07;;;;;;;11.05;1.40;;;;;;;1.90;100.00;99681.06;5046110;28;20021;-78
2024/01/14 02:03:33;;;;;;;9.70;1.30;;;;;;;1.85;100.00;99684.09;5030129;28;20040;-77
2024/01/14 02:06:01;;;;;;;12.18;2.40;;;;;;;1.84;100.00;99687.66;5046085;28;20052;-78
2024/01/14 02:08:26;;;;;;;14.02;2.20;;;;;;;1.93;100.00;99712.38;5046228;28;20050;-77
2024/01/14 02:10:52;;;;;;;15.27;3.00;;;;;;;1.81;100.00;99692.38;5044434;28;20046;-78
2024/01/14 02:13:18;;;;;;;15.50;2.55;;;;;;;2.00;100.00;99718.78;5029803;28;20041;-78
2024/01/14 02:15:43;;;;;;;13.45;1.88;;;;;;;1.73;100.00;99692.19;5045846;28;20025;-78
2024/01/14 02:18:08;;;;;;;17.92;2.40;;;;;;;1.84;100.00;99721.06;5023981;28;20033;-78
2024/01/14 02:20:34;;;;;;;19.55;2.72;;;;;;;1.82;100.00;99725.63;5030203;28;20091;-77
2024/01/14 02:22:59;;;;;;;15.82;2.83;;;;;;;1.77;100.00;99717.28;5020225;28;20080;-78
2024/01/14 02:25:25;;;;;;;18.58;3.60;;;;;;;1.84;100.00;99736.84;5029414;28;20030;-77
2024/01/14 02:27:51;;;;;;;11.00;2.60;;;;;;;1.67;100.00;99709.34;5059586;28;20045;-77
2024/01/14 02:30:18;;;;;;;20.92;2.40;;;;;;;1.72;100.00;99714.22;5029878;28;20099;-76
2024/01/14 02:32:43;;;;;;;14.30;2.33;;;;;;;1.64;100.00;99720.16;5038616;28;20427;-77
2024/01/14 02:35:09;;;;;;;20.67;3.10;;;;;;;1.64;100.00;99731.50;5042067;28;20053;-77
2024/01/14 02:37:35;;;;;;;10.88;2.05;;;;;;;1.69;100.00;99742.47;5026007;28;20037;-77
2024/01/14 02:40:01;;;;;;;22.00;3.38;;;;;;;1.74;100.00;99743.88;5027241;28;20117;-77
2024/01/14 02:42:26;;;;;;;20.45;2.80;;;;;;;1.78;100.00;99740.84;5029459;28;20554;-77
2024/01/14 02:44:51;;;;;;;15.32;3.28;;;;;;;1.76;100.00;99727.00;5020967;28;20056;-76
2024/01/14 02:47:17;;;;;;;11.48;2.40;;;;;;;1.72;100.00;99722.13;5034547;28;20017;-77
2024/01/14 02:49:42;;;;;;;21.67;3.60;;;;;;;1.81;100.00;99723.97;5036242;28;20033;-76
2024/01/14 02:52:08;;;;;;;15.52;3.00;;;;;;;1.84;100.00;99715.78;5035060;28;20318;-78
2024/01/14 02:54:33;;;;;;;17.00;3.17;;;;;;;1.62;100.00;99686.06;5026513;28;20064;-77
2024/01/14 02:56:58;;;;;;;19.05;2.33;;;;;;;1.63;100.00;99711.38;5041858;28;20132;-77
2024/01/14 02:59:24;;;;;;;5.50;1.77;;;;;;;1.58;100.00;99705.69;5032346;28;20041;-77
2024/01/14 03:01:49;;;;;;;21.05;3.10;;;;;;;1.43;100.00;99693.84;5035264;28;20195;-77
2024/01/14 03:04:14;;;;;;;11.85;2.38;;;;;;;1.64;100.00;99749.91;4998516;28;20036;-77
2024/01/14 03:06:40;;;;;;;18.48;3.00;;;;;;;1.72;100.00;99746.63;5041763;28;20055;-77
2024/01/14 03:09:06;;;;;;;16.08;2.10;;;;;;;1.55;100.00;99721.75;5044272;28;20045;-77
2024/01/14 03:11:35;;;;;;;19.42;2.22;;;;;;;1.63;100.00;99748.22;5034271;28;20033;-77
2024/01/14 03:14:01;;;;;;;16.92;2.40;;;;;;;1.57;100.00;99743.50;5032800;28;20045;-77
2024/01/14 03:16:26;;;;;;;15.88;3.25;;;;;;;1.55;100.00;99748.06;5022231;28;20037;-77
2024/01/14 03:18:52;;;;;;;22.00;2.60;;;;;;;1.58;100.00;99742.53;5037822;28;20569;-77
2024/01/14 03:21:20;;;;;;;14.03;2.97;;;;;;;1.58;100.00;99739.91;5045268;28;20067;-77
2024/01/14 03:23:46;;;;;;;25.95;2.67;;;;;;;1.45;100.00;99734.00;5042196;28;20338;-77
2024/01/14 03:26:12;;;;;;;8.05;2.00;;;;;;;1.53;100.00;99749.97;5033635;28;20028;-77
2024/01/14 03:28:37;;;;;;;8.88;1.90;;;;;;;1.58;100.00;99750.41;5038521;28;20036;-77
2024/01/14 03:31:03;;;;;;;18.20;2.78;;;;;;;1.61;100.00;99747.53;5012700;28;20036;-77
2024/01/14 03:33:28;;;;;;;17.27;2.25;;;;;;;1.51;100.00;99730.84;5034814;28;20116;-77
2024/01/14 03:35:54;;;;;;;11.00;2.50;;;;;;;1.44;100.00;99729.69;5025900;28;20527;-77
2024/01/14 03:38:19;;;;;;;19.60;2.92;;;;;;;1.62;100.00;99751.00;5042425;28;20823;-76
2024/01/14 03:40:46;;;;;;;19.63;3.92;;;;;;;1.58;100.00;99734.63;5030550;28;20021;-77
2024/01/14 03:43:11;;;;;;;11.82;2.00;;;;;;;1.56;100.00;99739.19;5022085;28;20041;-76
2024/01/14 03:45:37;;;;;;;10.63;3.03;;;;;;;1.47;100.00;99732.06;5024945;28;20029;-77
2024/01/14 03:48:02;;;;;;;18.73;2.97;;;;;;;1.58;100.00;99739.06;5014402;28;20092;-77
2024/01/14 03:50:27;;;;;;;14.18;2.03;;;;;;;1.63;100.00;99731.63;5046709;28;20033;-77
2024/01/14 03:52:53;;;;;;;17.70;2.78;;;;;;;1.54;100.00;99717.44;5013891;28;20033;-77
2024/01/14 03:55:19;;;;;;;10.18;1.55;;;;;;;1.51;100.00;99716.88;5030876;28;20099;-77
2024/01/14 03:57:44;;;;;;;21.40;2.92;;;;;;;1.44;100.00;99711.28;5035896;28;20025;-77
2024/01/14 04:00:11;;;;;;;8.35;1.45;;;;;;;1.51;100.00;99716.88;5044599;28;20040;-77
2024/01/14 04:02:36;;;;;;;20.98;3.05;;;;;;;1.40;100.00;99717.75;5014307;28;20519;-77
2024/01/14 04:05:01;;;;;;;15.48;2.55;;;;;;;1.37;100.00;99712.78;5036978;28;20041;-77
2024/01/14 04:07:26;;;;;;;16.73;3.27;;;;;;;1.44;100.00;99714.75;5016075;28;20786;-77
2024/01/14 04:09:52;;;;;;;11.23;1.80;;;;;;;1.43;100.00;99709.63;5029652;28;20291;-77
2024/01/14 04:12:17;;;;;;;12.60;1.92;;;;;;;1.45;100.00;99697.16;5011559;28;20109;-77
2024/01/14 04:14:44;;;;;;;19.05;2.65;;;;;;;1.31;100.00;99677.31;5029355;28;20022;-77
2024/01/14 04:17:09;;;;;;;9.25;2.22;;;;;;;1.28;100.00;99703.84;5036777;28;20061;-77
2024/01/14 04:19:36;;;;;;;19.25;3.97;;;;;;;1.37;100.00;99720.66;5011542;28;20475;-77
2024/01/14 04:22:02;;;;;;;9.13;1.65;;;;;;;1.36;100.00;99716.34;5004336;28;20133;-77
2024/01/14 04:24:28;;;;;;;15.20;2.92;;;;;;;1.38;100.00;99722.31;5040861;28;20120;-77
2024/01/14 04:26:53;;;;;;;21.13;3.97;;;;;;;1.41;100.00;99722.06;4994983;28;20026;-77
2024/01/14 04:29:18;;;;;;;11.65;2.90;;;;;;;1.51;100.00;99736.13;5029578;28;20287;-77
2024/01/14 04:31:44;;;;;;;14.35;2.08;;;;;;;1.50;100.00;99713.41;5008403;28;20053;-77
2024/01/14 04:34:09;;;;;;;16.90;2.43;;;;;;;1.25;100.00;99688.34;5009466;28;20034;-77
2024/01/14 04:36:34;;;;;;;13.53;1.87;;;;;;;1.47;100.00;99737.31;5008297;28;20293;-77
2024/01/14 04:38:59;;;;;;;8.00;1.97;;;;;;;1.56;100.00;99735.72;5010766;28;20419;-77
2024/01/14 04:41:25;;;;;;;22.30;3.72;;;;;;;1.46;100.00;99725.16;5018210;28;20293;-77
2024/01/14 04:43:50;;;;;;;17.17;2.20;;;;;;;1.63;100.00;99750.03;5033830;28;20123;-77
2024/01/14 04:46:16;;;;;;;15.40;2.53;;;;;;;1.64;100.00;99730.66;5017921;28;20065;-77
2024/01/14 04:48:41;;;;;;;19.48;3.72;;;;;;;1.68;100.00;99739.94;5032997;28;20110;-77
2024/01/14 04:51:06;;;;;;;16.92;2.60;;;;;;;1.76;100.00;99742.78;5038222;28;20030;-77
2024/01/14 04:53:32;;;;;;;12.55;3.33;;;;;;;1.56;100.00;99704.16;5022258;28;20029;-77
2024/01/14 04:55:57;;;;;;;15.45;2.83;;;;;;;1.72;100.00;99728.19;5033981;28;20096;-77
2024/01/14 04:58:22;;;;;;;17.42;2.58;;;;;;;1.74;100.00;99728.09;5035592;28;20047;-77
2024/01/14 05:00:48;;;;;;;17.13;3.17;;;;;;;1.76;100.00;99731.44;4994710;28;20042;-77
2024/01/14 05:03:13;;;;;;;7.40;1.70;;;;;;;1.82;100.00;99736.97;5025608;28;20022;-77
2024/01/14 05:05:39;;;;;;;21.30;2.67;;;;;;;1.72;100.00;99715.06;5025998;28;20082;-77
2024/01/14 05:08:04;;;;;;;14.73;2.03;;;;;;;1.87;100.00;99739.22;5030024;28;20056;-77
2024/01/14 05:10:30;;;;;;;19.50;2.97;;;;;;;1.96;100.00;99733.16;5034876;28;20041;-77
2024/01/14 05:12:55;;;;;;;14.93;2.05;;;;;;;1.93;100.00;99729.97;5018712;28;20025;-78
2024/01/14 05:15:20;;;;;;;16.08;2.50;;;;;;;1.93;100.00;99719.44;5007080;28;20160;-77
2024/01/14 05:17:46;;;;;;;14.73;2.23;;;;;;;1.96;100.00;99712.09;5022770;28;20037;-77
2024/01/14 05:20:11;;;;;;;16.00;3.20;;;;;;;2.00;100.00;99715.31;5008305;28;20291;-78
2024/01/14 05:22:37;;;;;;;11.52;2.15;;;;;;;1.98;100.00;99709.34;5015444;28;20694;-77
2024/01/14 05:25:04;;;;;;;18.35;2.15;;;;;;;1.95;100.00;99699.91;5030294;28;20029;-77
2024/01/14 05:27:29;;;;;;;11.32;2.33;;;;;;;1.93;100.00;99695.75;5044000;28;20028;-77
2024/01/14 05:29:54;;;;;;;13.95;2.58;;;;;;;1.97;100.00;99705.06;5035057;28;20395;-77
2024/01/14 05:32:20;;;;;;;22.23;4.45;;;;;;;1.98;100.00;99698.81;5040577;28;20410;-77
2024/01/14 05:34:45;;;;;;;15.40;2.27;;;;;;;1.94;100.00;99689.50;5045152;28;20180;-77
2024/01/14 05:37:11;;;;;;;14.40;2.13;;;;;;;2.03;100.00;99709.78;5020419;28;20366;-77
2024/01/14 05:39:36;;;;;;;;;;;;;;;1.98;100.00;99697.00;5010286;28;20100;-77
2024/01/14 05:42:03;;;;;;;8.00;1.15;;;;;;;2.02;100.00;99701.06;5023362;28;20000;-77
2024/01/14 05:44:29;;;;;;;19.35;2.20;;;;;;;2.02;100.00;99708.94;5035702;28;20033;-77
2024/01/14 05:46:55;;;;;;;;;;;;;;;1.98;100.00;99707.53;5021620;28;20468;-77
2024/01/14 05:49:20;;;;;;;16.60;3.53;;;;;;;2.03;100.00;99710.59;5028656;28;19916;-77
2024/01/14 05:51:46;;;;;;;14.50;3.35;;;;;;;1.95;100.00;99704.34;5012113;28;20475;-77
2024/01/14 05:54:12;;;;;;;21.33;3.65;;;;;;;2.12;100.00;99727.41;5034819;28;20554;-76
2024/01/14 05:56:37;;;;;;;17.48;3.53;;;;;;;1.97;100.00;99708.53;5034464;28;20025;-77
2024/01/14 05:59:02;;;;;;;16.88;2.83;;;;;;;2.02;100.00;99708.13;4999245;28;20034;-77
2024/01/14 06:01:29;;;;;;;16.15;1.90;;;;;;;1.93;100.00;99704.47;5022891;28;20031;-77
2024/01/14 06:03:54;;;;;;;;;;;;;;;2.02;100.00;99732.66;5019744;28;20026;-76
2024/01/14 06:06:19;;;;;;;11.55;2.03;;;;;;;2.11;100.00;99736.28;5023807;28;19916;-77
2024/01/14 06:08:45;;;;;;;15.85;2.30;;;;;;;2.18;100.00;99726.03;5009316;28;20033;-77
2024/01/14 06:11:13;;;;;;;12.57;2.85;;;;;;;2.08;100.00;99697.91;5034683;28;20436;-77
2024/01/14 06:13:41;;;;;;;14.70;2.33;;;;;;;2.13;100.00;99722.97;5034581;28;20040;-77
2024/01/14 06:16:07;;;;;;;12.88;3.45;;;;;;;2.07;100.00;99706.75;5005200;28;20384;-77
2024/01/14 06:18:33;;;;;;;16.98;3.15;;;;;;;2.17;100.00;99716.47;5036063;28;20043;-77
2024/01/14 06:21:01;;;;;;;14.20;2.33;;;;;;;2.14;100.00;99703.59;5031213;28;20045;-77
2024/01/14 06:23:28;;;;;;;16.55;2.65;;;;;;;2.27;100.00;99725.22;5032780;28;20071;-77
2024/01/14 06:25:53;;;;;;;15.70;2.97;;;;;;;2.11;100.00;99704.69;5041815;28;20025;-77
2024/01/14 06:28:19;;;;;;;15.07;1.95;;;;;;;2.14;100.00;99693.88;5025581;28;20543;-77
2024/01/14 06:30:44;;;;;;;17.98;4.55;;;;;;;2.10;100.00;99703.84;5030137;28;20029;-77
2024/01/14 06:33:10;;;;;;;20.08;3.30;;;;;;;2.15;100.00;99721.03;5035171;28;20108;-77
2024/01/14 06:35:36;;;;;;;24.77;3.67;;;;;;;2.22;100.00;99712.47;5042841;28;20032;-78
2024/01/14 06:38:02;;;;;;;11.68;3.13;;;;;;;2.18;100.00;99711.09;5035162;28;20038;-77
2024/01/14 06:40:27;;;;;;;10.90;2.10;;;;;;;2.28;100.00;99724.28;5029158;28;20024;-77
2024/01/14 06:42:53;;;;;;;15.75;2.47;;;;;;;2.29;100.00;99712.75;5017498;28;20500;-76
2024/01/14 06:45:18;;;;;;;17.50;2.28;;;;;;;2.24;100.00;99704.44;5036452;28;20013;-77
2024/01/14 06:47:44;;;;;;;25.42;4.10;;;;;;;2.34;100.00;99710.56;5029546;28;20060;-77
2024/01/14 06:50:10;;;;;;;15.13;3.38;;;;;;;2.26;100.00;99703.34;5043148;28;20366;-77
2024/01/14 06:52:37;;;;;;;16.92;2.17;;;;;;;2.24;100.00;99701.81;5034986;28;20248;-76
2024/01/14 06:55:04;;;;;;;;;;;;;;;2.30;100.00;99717.09;5037529;28;20034;-77
2024/01/14 06:57:31;;;;;;;23.35;2.85;;;;;;;2.31;100.00;99710.84;5043558;28;19916;-77
2024/01/14 06:59:56;;;;;;;11.63;2.88;;;;;;;2.32;100.00;99712.50;5023961;28;20025;-76
2024/01/14 07:02:21;;;;;;;16.88;4.28;;;;;;;2.25;100.00;99699.03;5040559;28;20086;-76
2024/01/14 07:04:46;;;;;;;14.73;2.72;;;;;;;2.25;100.00;99712.22;5039420;28;20032;-76
2024/01/14 07:07:12;;;;;;;14.60;2.63;;;;;;;2.36;100.00;99708.63;5045194;28;20032;-77
2024/01/14 07:09:37;;;;;;;27.92;3.20;;;;;;;2.35;100.00;99708.78;5023215;28;20061;-77
2024/01/14 07:12:03;;;;;;;16.23;2.40;;;;;;;2.36;100.00;99711.25;5028444;28;20052;-75
2024/01/14 07:14:28;;;;;;;19.35;3.25;;;;;;;2.33;100.00;99703.63;5040858;28;20732;-77
2024/01/14 07:16:54;;;;;;;12.40;2.50;;;;;;;2.41;100.00;99718.75;5042731;28;20522;-77
2024/01/14 07:19:19;;;;;;;15.68;2.30;;;;;;;2.37;100.00;99702.41;5034258;28;20035;-77
2024/01/14 07:21:45;;;;;;;15.23;3.00;;;;;;;2.33;100.00;99701.00;5036710;28;20053;-77
2024/01/14 07:24:10;;;;;;;38.42;4.43;;;;;;;2.34;100.00;99705.28;5033220;28;20086;-77
2024/01/14 07:26:35;;;;;;;16.88;2.83;;;;;;;2.39;100.00;99708.38;5037486;28;20056;-77
2024/01/14 07:29:01;;;;;;;22.52;3.20;;;;;;;2.39;100.00;99697.84;5034321;28;20507;-76
2024/01/14 07:31:32;;;;;;;20.70;2.30;;;;;;;2.34;100.00;99697.38;5039711;28;20067;-76
2024/01/14 07:33:58;;;;;;;13.18;2.65;;;;;;;2.32;100.00;99696.72;5024442;28;20141;-77
2024/01/14 07:36:24;;;;;;;16.33;2.58;;;;;;;2.36;100.00;99708.63;5030213;28;20535;-76
2024/01/14 07:38:51;;;;;;;25.50;4.00;;;;;;;2.42;100.00;99718.63;5027395;28;20068;-76
2024/01/14 07:41:16;;;;;;;21.35;2.47;;;;;;;2.42;100.00;99704.63;5042480;28;20029;-77
2024/01/14 07:43:43;;;;;;;12.73;2.35;;;;;;;2.46;100.00;99701.59;5016138;28;20030;-76
2024/01/14 07:46:09;;;;;;;20.02;4.45;;;;;;;2.38;100.00;99688.25;5011557;28;20036;-76
2024/01/14 07:48:35;;;;;;;;;;;;;;;2.46;100.00;99708.66;5036168;28;20026;-77
2024/01/14 07:51:01;;;;;;;23.65;3.08;;;;;;;2.50;100.00;99716.13;5017590;28;20004;-77
2024/01/14 07:53:27;;;;;;;14.30;2.40;;;;;;;2.50;100.00;99697.69;5004608;28;20083;-76
2024/01/14 07:55:52;;;;;;;16.23;2.97;;;;;;;2.57;100.00;99705.06;5039945;28;20033;-77
2024/01/14 07:58:18;;;;;;;17.92;2.80;;;;;;;2.61;100.00;99701.19;5036603;28;20078;-76
2024/01/14 08:00:44;;;;;;;28.45;2.90;;;;;;;2.56;100.00;99680.53;5033064;28;20484;-77
2024/01/14 08:03:09;;;;;;;;;;;;;;;2.53;100.00;99662.34;5033109;28;20017;-78
2024/01/14 08:05:37;;;;;;;21.02;1.85;;;;;;;2.59;100.00;99660.97;5022431;28;19912;-77
2024/01/14 08:08:04;;;;;;;18.38;3.53;;;;;;;2.45;100.00;99649.03;5038875;28;20071;-78
2024/01/14 08:10:29;;;;;;;14.77;2.55;;;;;;;2.61;100.00;99680.13;5048070;28;20546;-78
2024/01/14 08:12:54;;;;;;;12.57;2.88;;;;;;;2.63;100.00;99662.38;5022575;28;20064;-77
2024/01/14 08:15:20;;;;;;;26.85;3.42;;;;;;;2.65;100.00;99666.53;5025043;28;20169;-77
2024/01/14 08:17:45;;;;;;;21.80;2.83;;;;;;;2.63;100.00;99641.28;5016751;28;20057;-77
2024/01/14 08:20:11;;;;;;;22.40;3.00;;;;;;;2.58;100.00;99635.59;5001841;28;20038;-76
2024/01/14 08:22:42;;;;;;;16.00;3.63;;;;;;;2.61;100.00;99644.03;5040110;28;20036;-76
2024/01/14 08:25:08;;;;;;;18.73;2.70;;;;;;;2.64;100.00;99637.66;5037446;28;20199;-77
2024/01/14 08:27:34;;;;;;;;;;;;;;;2.70;100.00;99623.94;5043711;28;20498;-76
2024/01/14 08:29:59;;;;;;;11.50;3.17;;;;;;;2.74;100.00;99614.78;5037760;28;19928;-77
2024/01/14 08:32:24;;;;;;;19.50;2.80;;;;;;;2.84;100.00;99626.16;5044220;28;20032;-77
2024/01/14 08:34:50;;;;;;;11.43;2.20;;;;;;;2.81;100.00;99608.00;5028769;28;20036;-77
2024/01/14 08:37:15;;;;;;;12.65;3.83;;;;;;;2.68;100.00;99581.06;5023520;28;20285;-77
2024/01/14 08:39:59;;;;;;;11.32;1.65;;;;;;;2.87;100.00;99602.13;5034934;28;20506;-77
2024/01/14 08:42:44;;;;;;;14.52;2.00;;;;;;;2.92;100.00;99578.81;5026747;28;20062;-77
2024/01/14 08:45:28;;;;;;;9.43;2.30;;;;;;;2.88;100.00;99572.19;5047122;28;20043;-78
2024/01/14 08:48:13;;;;;;;13.65;2.60;;;;;;;2.92;100.00;99562.16;5043606;28;20060;-77
2024/01/14 08:50:38;;;;;;;11.35;2.35;;;;;;;3.00;100.00;99553.53;5024524;28;20040;-75
2024/01/14 08:53:03;;;;;;;9.90;1.98;;;;;;;3.09;100.00;99548.25;5042237;28;20123;-77
2024/01/14 08:55:29;;;;;;;18.58;3.85;;;;;;;3.02;100.00;99538.41;5022898;28;20037;-77
2024/01/14 08:57:55;;;;;;;14.40;3.42;;;;;;;3.04;100.00;99528.53;5032522;28;20025;-77
2024/01/14 09:00:20;;;;;;;11.17;2.83;;;;;;;3.09;100.00;99515.75;5039573;28;20505;-77
2024/01/14 09:02:46;;;;;;;10.32;1.38;;;;;;;3.11;100.00;99508.53;5028195;28;20520;-77
2024/01/14 09:05:11;;;;;;;11.30;2.65;;;;;;;3.04;100.00;99499.53;5020983;28;20099;-77
2024/01/14 09:07:36;;;;;;;13.40;2.33;;;;;;;3.07;100.00;99486.91;5039955;28;20025;-77
2024/01/14 09:10:02;;;;;;;13.87;2.10;;;;;;;3.15;100.00;99489.63;5018019;28;20807;-78
2024/01/14 09:12:28;;;;;;;15.63;1.98;;;;;;;3.23;100.00;99465.19;5034405;28;20327;-77
2024/01/14 09:14:53;;;;;;;12.10;2.10;;;;;;;3.30;100.00;99461.00;5050257;28;20035;-77
2024/01/14 09:17:19;;;;;;;7.40;1.93;;;;;;;3.27;100.00;99444.59;5033358;28;20033;-77
2024/01/14 09:19:44;;;;;;;26.23;3.60;;;;;;;3.29;100.00;99430.28;5016492;28;20283;-78
2024/01/14 09:22:10;;;;;;;9.55;2.10;;;;;;;3.34;100.00;99425.41;5040136;28;20037;-76
2024/01/14 09:24:35;;;;;;;23.83;4.57;;;;;;;3.34;100.00;99409.56;5042931;28;20571;-77
2024/01/14 09:27:01;;;;;;;18.48;2.88;;;;;;;3.32;100.00;99377.22;5022443;28;20041;-76
2024/01/14 09:29:26;;;;;;;16.77;3.50;;;;;;;3.40;100.00;99386.22;5037882;28;20033;-76
2024/01/14 09:31:52;;;;;;;7.35;2.22;;;;;;;3.46;100.00;99375.06;5033623;28;20025;-76
2024/01/14 09:34:17;;;;;;;22.60;2.65;;;;;;;3.37;100.00;99369.72;5034809;28;20056;-77
2024/01/14 09:36:43;;;;;;;15.55;2.53;;;;;;;3.32;100.00;99340.28;5037555;28;20029;-77
2024/01/14 09:39:12;;;;;;;11.57;1.75;;;;;;;3.34;100.00;99346.25;5050685;28;20702;-77
2024/01/14 09:41:56;;;;;;;21.95;3.40;;;;;;;3.50;100.00;99363.22;5032936;28;20035;-76
2024/01/14 09:44:21;;;;;;;15.80;2.25;;;;;;;3.55;100.00;99347.75;5040099;28;20056;-76
2024/01/14 09:46:47;;;;;;;18.80;2.60;;;;;;;3.45;100.00;99296.91;5009815;28;20456;-77
2024/01/14 09:49:15;;;;;;;15.65;2.20;;;;;;;3.64;100.00;99299.34;5027678;28;20120;-76
2024/01/14 09:51:41;;;;;;;16.95;2.10;;;;;;;3.69;100.00;99262.75;5028135;28;20064;-77
2024/01/14 09:54:06;;;;;;;;;;;;;;;3.87;100.00;99251.34;5034570;28;20043;-76
2024/01/14 09:56:33;;;;;;;11.95;1.90;;;;;;;3.69;100.00;99206.50;5034396;28;19972;-76
2024/01/14 09:59:00;;;;;;;13.30;2.55;;;;;;;3.66;100.00;99193.63;5032661;28;20044;-77
2024/01/14 10:01:31;;;;;;;12.88;2.70;;;;;;;4.01;100.00;99306.22;5026763;28;20033;-77
2024/01/14 10:04:05;;;;;;;12.13;2.05;;;;;;;4.01;100.00;99248.13;5031333;28;20047;-76
2024/01/14 10:06:31;;;;;;;11.82;1.83;;;;;;;4.09;100.00;99208.53;5041827;28;20059;-77
2024/01/14 10:08:58;;;;;;;22.35;2.33;;;;;;;4.15;100.00;99175.38;5046666;28;20041;-76
2024/01/14 10:11:24;;;;;;;7.43;1.60;;;;;;;4.09;100.00;99154.88;5031979;28;20033;-77
2024/01/14 10:13:49;;;;;;;9.90;2.20;;;;;;;4.20;100.00;99176.53;5031366;28;20026;-76
2024/01/14 10:16:15;;;;;;;11.10;1.75;;;;;;;4.28;100.00;99164.34;5032413;28;20030;-77
2024/01/14 10:18:41;;;;;;;18.15;3.17;;;;;;;4.32;100.00;99150.66;5038306;28;20688;-77
2024/01/14 10:21:06;;;;;;;12.10;2.57;;;;;;;4.49;100.00;99117.16;5012998;28;20064;-77
2024/01/14 10:23:32;;;;;;;11.63;2.80;;;;;;;4.37;100.00;99041.84;5026370;28;20296;-77
2024/01/14 10:26:03;;;;;;;12.73;2.17;;;;;;;4.54;100.00;99058.53;5027877;28;20512;-76
2024/01/14 10:28:35;;;;;;;20.83;3.97;;;;;;;4.55;100.00;99046.97;5028710;28;20069;-77
2024/01/14 10:31:03;;;;;;;14.48;2.95;;;;;;;4.54;100.00;99022.38;5011865;28;20038;-77
2024/01/14 10:33:35;;;;;;;17.05;2.03;;;;;;;4.47;100.00;98980.91;5027500;28;20458;-76
2024/01/14 10:36:01;;;;;;;10.95;2.15;;;;;;;4.62;100.00;98998.56;5019446;28;20033;-77
2024/01/14 10:38:26;;;;;;;8.93;1.38;;;;;;;4.49;100.00;98971.00;5028402;28;20042;-76
2024/01/14 10:40:52;;;;;;;18.95;2.30;;;;;;;4.57;100.00;98995.59;5012268;28;20551;-77
2024/01/14 10:43:19;;;;;;;21.98;3.00;;;;;;;4.55;100.00;98973.78;5020418;28;20532;-77
2024/01/14 10:45:47;;;;;;;12.20;2.00;;;;;;;4.74;100.00;98990.28;5011147;28;20037;-76
2024/01/14 10:48:13;;;;;;;8.57;1.73;;;;;;;4.55;100.00;98955.28;5017805;28;20081;-76
2024/01/14 10:50:43;;;;;;;26.35;3.47;;;;;;;4.55;100.00;98983.53;5049217;28;20472;-77
2024/01/14 10:53:15;;;;;;;9.30;2.08;;;;;;;4.54;100.00;98984.53;5025875;28;20400;-77
2024/01/14 10:55:40;;;;;;;16.98;1.92;;;;;;;4.67;100.00;98997.25;5042569;28;20617;-77
2024/01/14 10:58:06;;;;;;;16.25;2.25;;;;;;;4.66;100.00;98996.44;5037813;28;20036;-76
2024/01/14 11:00:36;;;;;;;12.20;3.05;;;;;;;4.53;100.00;98916.81;5031925;28;20061;-77
2024/01/14 11:03:06;;;;;;;11.13;2.65;;;;;;;4.54;100.00;98952.81;5020426;28;20037;-77
2024/01/14 11:05:33;;;;;;;14.88;3.67;;;;;;;4.50;100.00;98936.47;5020242;28;20030;-77
2024/01/14 11:08:01;;;;;;;7.32;1.65;;;;;;;4.56;100.00;98962.22;5014408;28;20064;-76
2024/01/14 11:10:27;;;;;;;12.75;2.45;;;;;;;4.51;100.00;98988.31;5031988;28;20120;-77
2024/01/14 11:13:10;;;;;;;16.77;2.67;;;;;;;4.45;100.00;98973.16;5021828;28;20116;-77
2024/01/14 11:15:46;;;;;;;15.85;1.85;;;;;;;4.45;100.00;98954.66;5014938;28;20033;-77
2024/01/14 11:18:18;;;;;;;21.38;3.83;;;;;;;4.49;100.00;98955.13;5030015;28;20033;-78
2024/01/14 11:20:49;;;;;;;10.60;2.67;;;;;;;4.26;100.00;98875.72;5032463;28;20061;-77
2024/01/14 11:23:14;;;;;;;10.10;2.13;;;;;;;4.42;100.00;98916.19;5030378;28;20072;-77
2024/01/14 11:25:45;;;;;;;7.20;1.05;;;;;;;4.59;100.00;98955.78;5031538;28;20053;-77